sensor_id;sensor_type;location;lat;lon;timestamp;P1;durP1;ratioP1;P2;durP2;ratioP2
67721;SDS011;58309;45.292;11.820;2023-02-08T00:01:06;44.15;;;23.48;;
67721;SDS011;58309;45.292;11.820;2023-02-08T00:03:33;47.92;;;25.10;;
67721;SDS011;58309;45.292;11.820;2023-02-08T00:05:59;40.78;;;23.27;;
67721;SDS011;58309;45.292;11.820;2023-02-08T00:08:24;37.58;;;21.08;;
67721;SDS011;58309;45.292;11.820;2023-02-08T00:10:50;39.03;;;20.75;;
67721;SDS011;58309;45.292;11.820;2023-02-08T00:13:15;44.53;;;21.20;;
67721;SDS011;58309;45.292;11.820;2023-02-08T00:15:42;49.78;;;22.75;;
67721;SDS011;58309;45.292;11.820;2023-02-08T00:18:08;42.67;;;22.67;;
67721;SDS011;58309;45.292;11.820;2023-02-08T00:20:34;39.95;;;20.52;;
67721;SDS011;58309;45.292;11.820;2023-02-08T00:23:02;39.15;;;21.02;;
67721;SDS011;58309;45.292;11.820;2023-02-08T00:25:28;39.88;;;19.25;;
67721;SDS011;58309;45.292;11.820;2023-02-08T00:27:53;35.40;;;19.50;;
67721;SDS011;58309;45.292;11.820;2023-02-08T00:30:19;41.95;;;21.02;;
67721;SDS011;58309;45.292;11.820;2023-02-08T00:32:44;38.25;;;18.92;;
67721;SDS011;58309;45.292;11.820;2023-02-08T00:35:10;39.45;;;19.77;;
67721;SDS011;58309;45.292;11.820;2023-02-08T00:37:36;36.45;;;19.58;;
67721;SDS011;58309;45.292;11.820;2023-02-08T00:40:02;36.97;;;19.77;;
67721;SDS011;58309;45.292;11.820;2023-02-08T00:42:29;35.58;;;19.45;;
67721;SDS011;58309;45.292;11.820;2023-02-08T00:44:56;33.72;;;18.63;;
67721;SDS011;58309;45.292;11.820;2023-02-08T00:47:22;33.63;;;18.33;;
67721;SDS011;58309;45.292;11.820;2023-02-08T00:49:48;35.97;;;19.15;;
67721;SDS011;58309;45.292;11.820;2023-02-08T00:52:13;31.77;;;18.55;;
67721;SDS011;58309;45.292;11.820;2023-02-08T00:54:39;34.55;;;17.55;;
67721;SDS011;58309;45.292;11.820;2023-02-08T00:57:06;35.90;;;18.35;;
67721;SDS011;58309;45.292;11.820;2023-02-08T00:59:31;29.58;;;16.70;;
67721;SDS011;58309;45.292;11.820;2023-02-08T01:01:57;39.38;;;17.33;;
67721;SDS011;58309;45.292;11.820;2023-02-08T01:04:22;32.15;;;17.15;;
67721;SDS011;58309;45.292;11.820;2023-02-08T01:06:48;31.40;;;16.38;;
67721;SDS011;58309;45.292;11.820;2023-02-08T01:09:14;27.45;;;16.50;;
67721;SDS011;58309;45.292;11.820;2023-02-08T01:11:39;30.40;;;16.48;;
67721;SDS011;58309;45.292;11.820;2023-02-08T01:14:05;28.35;;;15.80;;
67721;SDS011;58309;45.292;11.820;2023-02-08T01:16:31;30.60;;;17.15;;
67721;SDS011;58309;45.292;11.820;2023-02-08T01:18:58;32.60;;;16.27;;
67721;SDS011;58309;45.292;11.820;2023-02-08T01:21:27;31.42;;;16.30;;
67721;SDS011;58309;45.292;11.820;2023-02-08T01:23:54;28.35;;;16.05;;
67721;SDS011;58309;45.292;11.820;2023-02-08T01:26:20;29.27;;;15.30;;
67721;SDS011;58309;45.292;11.820;2023-02-08T01:28:47;27.60;;;15.45;;
67721;SDS011;58309;45.292;11.820;2023-02-08T01:31:14;27.77;;;15.30;;
67721;SDS011;58309;45.292;11.820;2023-02-08T01:33:41;33.13;;;17.17;;
67721;SDS011;58309;45.292;11.820;2023-02-08T01:36:07;35.25;;;17.33;;
67721;SDS011;58309;45.292;11.820;2023-02-08T01:38:33;30.77;;;16.52;;
67721;SDS011;58309;45.292;11.820;2023-02-08T01:41:00;33.03;;;16.05;;
67721;SDS011;58309;45.292;11.820;2023-02-08T01:43:28;28.50;;;15.75;;
67721;SDS011;58309;45.292;11.820;2023-02-08T01:45:56;28.98;;;14.82;;
67721;SDS011;58309;45.292;11.820;2023-02-08T01:48:26;29.95;;;16.27;;
67721;SDS011;58309;45.292;11.820;2023-02-08T01:51:00;27.80;;;14.55;;
67721;SDS011;58309;45.292;11.820;2023-02-08T01:53:39;27.13;;;15.02;;
67721;SDS011;58309;45.292;11.820;2023-02-08T01:56:07;30.75;;;15.57;;
67721;SDS011;58309;45.292;11.820;2023-02-08T01:58:41;37.55;;;16.55;;
67721;SDS011;58309;45.292;11.820;2023-02-08T02:01:11;29.52;;;15.27;;
67721;SDS011;58309;45.292;11.820;2023-02-08T02:03:38;35.63;;;16.17;;
67721;SDS011;58309;45.292;11.820;2023-02-08T02:06:07;33.67;;;15.63;;
67721;SDS011;58309;45.292;11.820;2023-02-08T02:08:37;31.42;;;16.30;;
67721;SDS011;58309;45.292;11.820;2023-02-08T02:11:06;30.58;;;15.50;;
67721;SDS011;58309;45.292;11.820;2023-02-08T02:13:32;30.40;;;15.77;;
67721;SDS011;58309;45.292;11.820;2023-02-08T02:15:58;27.40;;;15.38;;
67721;SDS011;58309;45.292;11.820;2023-02-08T02:18:28;28.27;;;15.25;;
67721;SDS011;58309;45.292;11.820;2023-02-08T02:23:57;31.13;;;16.33;;
67721;SDS011;58309;45.292;11.820;2023-02-08T02:32:33;30.35;;;17.00;;
67721;SDS011;58309;45.292;11.820;2023-02-08T02:38:14;30.25;;;16.48;;
67721;SDS011;58309;45.292;11.820;2023-02-08T02:43:46;33.22;;;17.70;;
67721;SDS011;58309;45.292;11.820;2023-02-08T02:48:56;35.05;;;18.33;;
67721;SDS011;58309;45.292;11.820;2023-02-08T02:51:53;34.70;;;17.77;;
67721;SDS011;58309;45.292;11.820;2023-02-08T02:54:42;37.28;;;19.05;;
67721;SDS011;58309;45.292;11.820;2023-02-08T02:57:19;40.17;;;18.38;;
67721;SDS011;58309;45.292;11.820;2023-02-08T02:59:49;34.33;;;19.42;;
67721;SDS011;58309;45.292;11.820;2023-02-08T03:02:15;33.67;;;17.67;;
67721;SDS011;58309;45.292;11.820;2023-02-08T03:07:15;34.22;;;16.83;;
67721;SDS011;58309;45.292;11.820;2023-02-08T03:09:58;39.25;;;18.73;;
67721;SDS011;58309;45.292;11.820;2023-02-08T03:26:45;34.90;;;17.70;;
67721;SDS011;58309;45.292;11.820;2023-02-08T03:29:31;33.72;;;17.75;;
67721;SDS011;58309;45.292;11.820;2023-02-08T03:32:10;32.80;;;17.98;;
67721;SDS011;58309;45.292;11.820;2023-02-08T03:34:50;35.30;;;18.45;;
67721;SDS011;58309;45.292;11.820;2023-02-08T03:37:26;37.03;;;18.40;;
67721;SDS011;58309;45.292;11.820;2023-02-08T03:40:06;31.77;;;17.20;;
67721;SDS011;58309;45.292;11.820;2023-02-08T03:42:38;33.88;;;18.95;;
67721;SDS011;58309;45.292;11.820;2023-02-08T03:45:06;42.72;;;19.35;;
67721;SDS011;58309;45.292;11.820;2023-02-08T03:47:38;43.50;;;20.63;;
67721;SDS011;58309;45.292;11.820;2023-02-08T03:50:07;36.63;;;20.00;;
67721;SDS011;58309;45.292;11.820;2023-02-08T03:52:35;38.10;;;18.25;;
67721;SDS011;58309;45.292;11.820;2023-02-08T03:55:06;33.30;;;18.13;;
67721;SDS011;58309;45.292;11.820;2023-02-08T04:03:07;30.45;;;16.17;;
67721;SDS011;58309;45.292;11.820;2023-02-08T04:05:37;34.60;;;18.20;;
67721;SDS011;58309;45.292;11.820;2023-02-08T04:08:03;29.15;;;15.85;;
67721;SDS011;58309;45.292;11.820;2023-02-08T04:10:30;33.50;;;16.98;;
67721;SDS011;58309;45.292;11.820;2023-02-08T04:12:55;31.98;;;17.27;;
67721;SDS011;58309;45.292;11.820;2023-02-08T04:15:21;32.13;;;17.00;;
67721;SDS011;58309;45.292;11.820;2023-02-08T04:17:46;33.47;;;15.80;;
67721;SDS011;58309;45.292;11.820;2023-02-08T04:20:12;34.67;;;15.55;;
67721;SDS011;58309;45.292;11.820;2023-02-08T04:22:38;31.02;;;15.32;;
67721;SDS011;58309;45.292;11.820;2023-02-08T04:25:03;30.52;;;16.52;;
67721;SDS011;58309;45.292;11.820;2023-02-08T04:27:30;31.83;;;16.42;;
67721;SDS011;58309;45.292;11.820;2023-02-08T04:29:55;31.45;;;16.05;;
67721;SDS011;58309;45.292;11.820;2023-02-08T04:32:21;34.10;;;16.40;;
67721;SDS011;58309;45.292;11.820;2023-02-08T04:34:46;33.22;;;17.10;;
67721;SDS011;58309;45.292;11.820;2023-02-08T04:37:12;31.20;;;17.20;;
67721;SDS011;58309;45.292;11.820;2023-02-08T04:39:37;31.45;;;16.15;;
67721;SDS011;58309;45.292;11.820;2023-02-08T04:42:03;35.90;;;15.93;;
67721;SDS011;58309;45.292;11.820;2023-02-08T04:44:28;30.77;;;15.75;;
67721;SDS011;58309;45.292;11.820;2023-02-08T04:46:56;36.65;;;16.48;;
67721;SDS011;58309;45.292;11.820;2023-02-08T04:49:23;32.25;;;17.00;;
67721;SDS011;58309;45.292;11.820;2023-02-08T04:51:48;30.80;;;14.95;;
67721;SDS011;58309;45.292;11.820;2023-02-08T04:54:14;29.88;;;15.70;;
67721;SDS011;58309;45.292;11.820;2023-02-08T04:56:39;26.73;;;14.52;;
67721;SDS011;58309;45.292;11.820;2023-02-08T04:59:05;28.65;;;15.43;;
67721;SDS011;58309;45.292;11.820;2023-02-08T05:01:31;31.88;;;15.43;;
67721;SDS011;58309;45.292;11.820;2023-02-08T05:03:56;33.33;;;17.13;;
67721;SDS011;58309;45.292;11.820;2023-02-08T05:06:22;34.20;;;15.35;;
67721;SDS011;58309;45.292;11.820;2023-02-08T05:08:47;30.42;;;16.73;;
67721;SDS011;58309;45.292;11.820;2023-02-08T05:11:18;27.42;;;14.43;;
67721;SDS011;58309;45.292;11.820;2023-02-08T05:13:45;30.83;;;15.98;;
67721;SDS011;58309;45.292;11.820;2023-02-08T05:16:10;30.98;;;16.83;;
67721;SDS011;58309;45.292;11.820;2023-02-08T05:18:36;29.55;;;14.95;;
67721;SDS011;58309;45.292;11.820;2023-02-08T05:21:01;30.58;;;16.67;;
67721;SDS011;58309;45.292;11.820;2023-02-08T05:23:28;30.95;;;15.98;;
67721;SDS011;58309;45.292;11.820;2023-02-08T05:25:53;30.70;;;14.82;;
67721;SDS011;58309;45.292;11.820;2023-02-08T05:28:19;31.30;;;15.18;;
67721;SDS011;58309;45.292;11.820;2023-02-08T05:30:45;32.45;;;17.00;;
67721;SDS011;58309;45.292;11.820;2023-02-08T05:33:11;34.30;;;16.98;;
67721;SDS011;58309;45.292;11.820;2023-02-08T05:35:36;37.45;;;16.70;;
67721;SDS011;58309;45.292;11.820;2023-02-08T05:38:02;30.10;;;15.00;;
67721;SDS011;58309;45.292;11.820;2023-02-08T05:40:28;35.78;;;16.35;;
67721;SDS011;58309;45.292;11.820;2023-02-08T05:42:53;41.80;;;18.08;;
67721;SDS011;58309;45.292;11.820;2023-02-08T05:45:19;32.47;;;16.63;;
67721;SDS011;58309;45.292;11.820;2023-02-08T05:47:44;33.97;;;16.85;;
67721;SDS011;58309;45.292;11.820;2023-02-08T05:50:11;32.83;;;16.83;;
67721;SDS011;58309;45.292;11.820;2023-02-08T05:52:37;37.90;;;18.52;;
67721;SDS011;58309;45.292;11.820;2023-02-08T05:55:03;35.78;;;17.23;;
67721;SDS011;58309;45.292;11.820;2023-02-08T05:57:29;34.65;;;17.15;;
67721;SDS011;58309;45.292;11.820;2023-02-08T05:59:55;30.15;;;16.48;;
67721;SDS011;58309;45.292;11.820;2023-02-08T06:02:21;37.95;;;18.17;;
67721;SDS011;58309;45.292;11.820;2023-02-08T06:04:46;33.75;;;16.98;;
67721;SDS011;58309;45.292;11.820;2023-02-08T06:07:12;30.38;;;15.98;;
67721;SDS011;58309;45.292;11.820;2023-02-08T06:09:37;35.22;;;17.50;;
67721;SDS011;58309;45.292;11.820;2023-02-08T06:12:03;36.15;;;15.90;;
67721;SDS011;58309;45.292;11.820;2023-02-08T06:14:29;31.50;;;16.58;;
67721;SDS011;58309;45.292;11.820;2023-02-08T06:16:55;33.10;;;16.70;;
67721;SDS011;58309;45.292;11.820;2023-02-08T06:19:20;29.67;;;15.20;;
67721;SDS011;58309;45.292;11.820;2023-02-08T06:21:46;30.90;;;16.05;;
67721;SDS011;58309;45.292;11.820;2023-02-08T06:24:12;31.60;;;15.98;;
67721;SDS011;58309;45.292;11.820;2023-02-08T06:26:37;30.13;;;16.10;;
67721;SDS011;58309;45.292;11.820;2023-02-08T06:29:05;29.48;;;15.95;;
67721;SDS011;58309;45.292;11.820;2023-02-08T06:31:30;36.00;;;16.10;;
67721;SDS011;58309;45.292;11.820;2023-02-08T06:33:56;31.85;;;15.15;;
67721;SDS011;58309;45.292;11.820;2023-02-08T06:36:21;34.88;;;16.23;;
67721;SDS011;58309;45.292;11.820;2023-02-08T06:38:47;36.33;;;16.60;;
67721;SDS011;58309;45.292;11.820;2023-02-08T06:41:12;30.77;;;15.73;;
67721;SDS011;58309;45.292;11.820;2023-02-08T06:43:38;29.42;;;16.27;;
67721;SDS011;58309;45.292;11.820;2023-02-08T06:46:04;33.78;;;16.38;;
67721;SDS011;58309;45.292;11.820;2023-02-08T06:48:32;27.50;;;15.05;;
67721;SDS011;58309;45.292;11.820;2023-02-08T06:50:58;38.03;;;18.90;;
67721;SDS011;58309;45.292;11.820;2023-02-08T06:53:24;34.83;;;15.82;;
67721;SDS011;58309;45.292;11.820;2023-02-08T06:55:50;33.63;;;15.38;;
67721;SDS011;58309;45.292;11.820;2023-02-08T06:58:16;37.33;;;17.58;;
67721;SDS011;58309;45.292;11.820;2023-02-08T07:00:42;32.22;;;17.23;;
67721;SDS011;58309;45.292;11.820;2023-02-08T07:03:11;32.90;;;16.65;;
67721;SDS011;58309;45.292;11.820;2023-02-08T07:05:38;32.50;;;16.38;;
67721;SDS011;58309;45.292;11.820;2023-02-08T07:08:05;35.88;;;18.38;;
67721;SDS011;58309;45.292;11.820;2023-02-08T07:10:31;37.00;;;17.58;;
67721;SDS011;58309;45.292;11.820;2023-02-08T07:12:58;38.08;;;20.13;;
67721;SDS011;58309;45.292;11.820;2023-02-08T07:15:26;35.97;;;17.70;;
67721;SDS011;58309;45.292;11.820;2023-02-08T07:17:51;32.80;;;17.08;;
67721;SDS011;58309;45.292;11.820;2023-02-08T07:20:17;38.85;;;17.58;;
67721;SDS011;58309;45.292;11.820;2023-02-08T07:22:42;36.25;;;18.38;;
67721;SDS011;58309;45.292;11.820;2023-02-08T07:25:08;32.53;;;16.10;;
67721;SDS011;58309;45.292;11.820;2023-02-08T07:27:34;32.83;;;16.88;;
67721;SDS011;58309;45.292;11.820;2023-02-08T07:29:59;33.17;;;16.42;;
67721;SDS011;58309;45.292;11.820;2023-02-08T07:32:25;32.45;;;15.63;;
67721;SDS011;58309;45.292;11.820;2023-02-08T07:34:51;34.67;;;17.23;;
67721;SDS011;58309;45.292;11.820;2023-02-08T07:37:18;38.38;;;17.75;;
67721;SDS011;58309;45.292;11.820;2023-02-08T07:39:43;34.97;;;18.35;;
67721;SDS011;58309;45.292;11.820;2023-02-08T07:42:09;35.95;;;18.35;;
67721;SDS011;58309;45.292;11.820;2023-02-08T07:44:35;35.83;;;18.50;;
67721;SDS011;58309;45.292;11.820;2023-02-08T07:47:02;38.13;;;18.90;;
67721;SDS011;58309;45.292;11.820;2023-02-08T07:49:28;37.47;;;18.73;;
67721;SDS011;58309;45.292;11.820;2023-02-08T07:51:54;48.50;;;23.63;;
67721;SDS011;58309;45.292;11.820;2023-02-08T07:54:19;58.80;;;26.58;;
67721;SDS011;58309;45.292;11.820;2023-02-08T07:56:45;70.25;;;31.48;;
67721;SDS011;58309;45.292;11.820;2023-02-08T07:59:10;59.45;;;28.27;;
67721;SDS011;58309;45.292;11.820;2023-02-08T08:01:36;39.20;;;21.02;;
67721;SDS011;58309;45.292;11.820;2023-02-08T08:04:01;42.53;;;21.98;;
67721;SDS011;58309;45.292;11.820;2023-02-08T08:06:27;33.67;;;18.17;;
67721;SDS011;58309;45.292;11.820;2023-02-08T08:08:53;37.17;;;19.13;;
67721;SDS011;58309;45.292;11.820;2023-02-08T08:11:19;37.72;;;20.98;;
67721;SDS011;58309;45.292;11.820;2023-02-08T08:13:45;37.65;;;18.80;;
67721;SDS011;58309;45.292;11.820;2023-02-08T08:16:11;33.38;;;17.60;;
67721;SDS011;58309;45.292;11.820;2023-02-08T08:18:37;33.83;;;17.88;;
67721;SDS011;58309;45.292;11.820;2023-02-08T08:21:02;33.83;;;18.23;;
67721;SDS011;58309;45.292;11.820;2023-02-08T08:23:28;31.08;;;16.70;;
67721;SDS011;58309;45.292;11.820;2023-02-08T08:25:54;33.13;;;18.33;;
67721;SDS011;58309;45.292;11.820;2023-02-08T08:28:20;39.33;;;19.38;;
67721;SDS011;58309;45.292;11.820;2023-02-08T08:30:45;33.70;;;18.08;;
67721;SDS011;58309;45.292;11.820;2023-02-08T08:33:11;38.17;;;18.42;;
67721;SDS011;58309;45.292;11.820;2023-02-08T08:35:38;34.13;;;17.80;;
67721;SDS011;58309;45.292;11.820;2023-02-08T08:38:05;34.88;;;19.63;;
67721;SDS011;58309;45.292;11.820;2023-02-08T08:40:30;49.15;;;21.67;;
67721;SDS011;58309;45.292;11.820;2023-02-08T08:42:56;41.90;;;19.52;;
67721;SDS011;58309;45.292;11.820;2023-02-08T08:45:22;67.63;;;22.92;;
67721;SDS011;58309;45.292;11.820;2023-02-08T08:47:47;71.28;;;25.85;;
67721;SDS011;58309;45.292;11.820;2023-02-08T08:50:13;44.30;;;19.55;;
67721;SDS011;58309;45.292;11.820;2023-02-08T08:52:39;57.78;;;23.98;;
67721;SDS011;58309;45.292;11.820;2023-02-08T08:55:06;37.45;;;18.80;;
67721;SDS011;58309;45.292;11.820;2023-02-08T08:57:32;52.17;;;22.67;;
67721;SDS011;58309;45.292;11.820;2023-02-08T08:59:58;51.00;;;23.60;;
67721;SDS011;58309;45.292;11.820;2023-02-08T09:02:24;42.83;;;21.42;;
67721;SDS011;58309;45.292;11.820;2023-02-08T09:04:49;46.03;;;23.45;;
67721;SDS011;58309;45.292;11.820;2023-02-08T09:07:15;35.15;;;18.27;;
67721;SDS011;58309;45.292;11.820;2023-02-08T09:09:40;35.03;;;19.13;;
67721;SDS011;58309;45.292;11.820;2023-02-08T09:12:06;30.02;;;16.23;;
67721;SDS011;58309;45.292;11.820;2023-02-08T09:14:32;39.70;;;16.52;;
67721;SDS011;58309;45.292;11.820;2023-02-08T09:16:58;32.08;;;16.30;;
67721;SDS011;58309;45.292;11.820;2023-02-08T09:19:23;28.77;;;15.20;;
67721;SDS011;58309;45.292;11.820;2023-02-08T09:21:49;29.23;;;16.27;;
67721;SDS011;58309;45.292;11.820;2023-02-08T09:24:15;29.45;;;16.85;;
67721;SDS011;58309;45.292;11.820;2023-02-08T09:26:41;26.00;;;15.32;;
67721;SDS011;58309;45.292;11.820;2023-02-08T09:29:06;25.60;;;14.95;;
67721;SDS011;58309;45.292;11.820;2023-02-08T09:31:33;22.90;;;14.40;;
67721;SDS011;58309;45.292;11.820;2023-02-08T09:34:01;26.08;;;14.95;;
67721;SDS011;58309;45.292;11.820;2023-02-08T09:36:31;26.83;;;15.38;;
67721;SDS011;58309;45.292;11.820;2023-02-08T09:39:04;24.45;;;14.27;;
67721;SDS011;58309;45.292;11.820;2023-02-08T09:41:40;31.27;;;14.43;;
67721;SDS011;58309;45.292;11.820;2023-02-08T09:44:30;24.83;;;14.50;;
67721;SDS011;58309;45.292;11.820;2023-02-08T09:47:23;25.80;;;13.65;;
67721;SDS011;58309;45.292;11.820;2023-02-08T09:52:36;24.98;;;14.57;;
67721;SDS011;58309;45.292;11.820;2023-02-08T09:55:16;29.50;;;15.63;;
67721;SDS011;58309;45.292;11.820;2023-02-08T09:57:48;26.38;;;15.65;;
67721;SDS011;58309;45.292;11.820;2023-02-08T10:00:17;28.38;;;16.25;;
67721;SDS011;58309;45.292;11.820;2023-02-08T10:02:46;28.83;;;16.60;;
67721;SDS011;58309;45.292;11.820;2023-02-08T10:05:13;28.77;;;14.55;;
67721;SDS011;58309;45.292;11.820;2023-02-08T10:07:44;24.67;;;14.95;;
67721;SDS011;58309;45.292;11.820;2023-02-08T10:10:14;27.40;;;17.55;;
67721;SDS011;58309;45.292;11.820;2023-02-08T10:18:10;23.38;;;14.02;;
67721;SDS011;58309;45.292;11.820;2023-02-08T10:29:11;21.88;;;13.52;;
67721;SDS011;58309;45.292;11.820;2023-02-08T10:34:45;27.08;;;14.13;;
67721;SDS011;58309;45.292;11.820;2023-02-08T10:37:17;24.35;;;15.23;;
67721;SDS011;58309;45.292;11.820;2023-02-08T10:39:44;21.77;;;14.25;;
67721;SDS011;58309;45.292;11.820;2023-02-08T10:42:12;25.92;;;15.18;;
67721;SDS011;58309;45.292;11.820;2023-02-08T10:47:49;31.20;;;15.98;;
67721;SDS011;58309;45.292;11.820;2023-02-08T10:53:08;27.35;;;16.23;;
67721;SDS011;58309;45.292;11.820;2023-02-08T10:55:40;30.33;;;15.60;;
67721;SDS011;58309;45.292;11.820;2023-02-08T10:58:09;27.83;;;15.80;;
67721;SDS011;58309;45.292;11.820;2023-02-08T11:00:39;26.15;;;16.75;;
67721;SDS011;58309;45.292;11.820;2023-02-08T11:05:48;27.52;;;16.00;;
67721;SDS011;58309;45.292;11.820;2023-02-08T11:08:15;25.65;;;15.48;;
67721;SDS011;58309;45.292;11.820;2023-02-08T11:13:35;25.58;;;16.38;;
67721;SDS011;58309;45.292;11.820;2023-02-08T11:16:10;24.65;;;15.05;;
67721;SDS011;58309;45.292;11.820;2023-02-08T11:19:02;23.98;;;14.45;;
67721;SDS011;58309;45.292;11.820;2023-02-08T11:21:36;25.13;;;14.60;;
67721;SDS011;58309;45.292;11.820;2023-02-08T11:24:07;20.75;;;12.20;;
67721;SDS011;58309;45.292;11.820;2023-02-08T11:26:54;22.38;;;13.20;;
67721;SDS011;58309;45.292;11.820;2023-02-08T11:29:27;28.08;;;16.70;;
67721;SDS011;58309;45.292;11.820;2023-02-08T11:34:27;25.48;;;16.50;;
67721;SDS011;58309;45.292;11.820;2023-02-08T11:36:53;24.13;;;14.15;;
67721;SDS011;58309;45.292;11.820;2023-02-08T11:39:28;29.35;;;14.20;;
67721;SDS011;58309;45.292;11.820;2023-02-08T11:42:29;20.35;;;13.18;;
67721;SDS011;58309;45.292;11.820;2023-02-08T11:44:58;28.48;;;14.27;;
67721;SDS011;58309;45.292;11.820;2023-02-08T11:47:25;24.02;;;15.20;;
67721;SDS011;58309;45.292;11.820;2023-02-08T11:49:55;24.05;;;14.15;;
67721;SDS011;58309;45.292;11.820;2023-02-08T11:54:51;22.02;;;13.75;;
67721;SDS011;58309;45.292;11.820;2023-02-08T11:57:18;25.02;;;12.07;;
67721;SDS011;58309;45.292;11.820;2023-02-08T11:59:48;25.58;;;13.57;;
67721;SDS011;58309;45.292;11.820;2023-02-08T12:12:57;25.50;;;13.15;;
67721;SDS011;58309;45.292;11.820;2023-02-08T12:15:35;20.33;;;11.85;;
67721;SDS011;58309;45.292;11.820;2023-02-08T12:18:25;22.52;;;12.50;;
67721;SDS011;58309;45.292;11.820;2023-02-08T12:23:53;17.58;;;11.80;;
67721;SDS011;58309;45.292;11.820;2023-02-08T12:37:51;21.70;;;13.15;;
67721;SDS011;58309;45.292;11.820;2023-02-08T12:40:52;19.52;;;11.27;;
67721;SDS011;58309;45.292;11.820;2023-02-08T12:46:20;23.45;;;11.38;;
67721;SDS011;58309;45.292;11.820;2023-02-08T12:54:29;21.77;;;11.23;;
67721;SDS011;58309;45.292;11.820;2023-02-08T12:57:00;20.88;;;12.38;;
67721;SDS011;58309;45.292;11.820;2023-02-08T12:59:48;20.02;;;12.15;;
67721;SDS011;58309;45.292;11.820;2023-02-08T13:02:23;22.63;;;11.93;;
67721;SDS011;58309;45.292;11.820;2023-02-08T13:04:54;22.90;;;12.63;;
67721;SDS011;58309;45.292;11.820;2023-02-08T13:07:40;21.10;;;11.25;;
67721;SDS011;58309;45.292;11.820;2023-02-08T13:12:34;20.45;;;11.45;;
67721;SDS011;58309;45.292;11.820;2023-02-08T13:18:03;20.25;;;11.80;;
67721;SDS011;58309;45.292;11.820;2023-02-08T13:23:12;18.20;;;10.88;;
67721;SDS011;58309;45.292;11.820;2023-02-08T13:25:43;19.00;;;11.38;;
67721;SDS011;58309;45.292;11.820;2023-02-08T13:28:15;23.23;;;12.98;;
67721;SDS011;58309;45.292;11.820;2023-02-08T13:30:43;22.90;;;11.90;;
67721;SDS011;58309;45.292;11.820;2023-02-08T13:33:16;24.58;;;11.95;;
67721;SDS011;58309;45.292;11.820;2023-02-08T13:35:49;21.25;;;11.57;;
67721;SDS011;58309;45.292;11.820;2023-02-08T13:41:15;23.88;;;11.95;;
67721;SDS011;58309;45.292;11.820;2023-02-08T13:46:42;26.77;;;14.43;;
67721;SDS011;58309;45.292;11.820;2023-02-08T13:49:38;24.75;;;12.80;;
67721;SDS011;58309;45.292;11.820;2023-02-08T14:03:23;26.20;;;11.32;;
67721;SDS011;58309;45.292;11.820;2023-02-08T14:06:03;30.73;;;13.88;;
67721;SDS011;58309;45.292;11.820;2023-02-08T14:13:36;20.80;;;10.10;;
67721;SDS011;58309;45.292;11.820;2023-02-08T14:16:28;19.20;;;10.27;;
67721;SDS011;58309;45.292;11.820;2023-02-08T14:19:21;22.42;;;11.00;;
67721;SDS011;58309;45.292;11.820;2023-02-08T14:21:47;19.80;;;10.75;;
67721;SDS011;58309;45.292;11.820;2023-02-08T14:24:25;22.77;;;11.93;;
67721;SDS011;58309;45.292;11.820;2023-02-08T14:29:57;29.25;;;12.27;;
67721;SDS011;58309;45.292;11.820;2023-02-08T14:32:24;19.77;;;10.45;;
67721;SDS011;58309;45.292;11.820;2023-02-08T14:35:03;19.38;;;10.32;;
67721;SDS011;58309;45.292;11.820;2023-02-08T14:37:32;26.00;;;12.77;;
67721;SDS011;58309;45.292;11.820;2023-02-08T14:42:59;17.50;;;9.98;;
67721;SDS011;58309;45.292;11.820;2023-02-08T14:45:35;20.35;;;11.02;;
67721;SDS011;58309;45.292;11.820;2023-02-08T14:56:03;18.83;;;9.90;;
67721;SDS011;58309;45.292;11.820;2023-02-08T14:59:03;18.35;;;9.00;;
67721;SDS011;58309;45.292;11.820;2023-02-08T15:01:39;19.20;;;10.70;;
67721;SDS011;58309;45.292;11.820;2023-02-08T15:04:07;15.02;;;8.98;;
67721;SDS011;58309;45.292;11.820;2023-02-08T15:09:03;21.15;;;10.93;;
67721;SDS011;58309;45.292;11.820;2023-02-08T15:11:34;16.63;;;9.63;;
67721;SDS011;58309;45.292;11.820;2023-02-08T15:14:01;22.38;;;9.95;;
67721;SDS011;58309;45.292;11.820;2023-02-08T15:16:35;19.30;;;9.40;;
67721;SDS011;58309;45.292;11.820;2023-02-08T15:19:06;16.52;;;8.82;;
67721;SDS011;58309;45.292;11.820;2023-02-08T15:21:33;17.27;;;9.07;;
67721;SDS011;58309;45.292;11.820;2023-02-08T15:24:12;22.98;;;9.77;;
67721;SDS011;58309;45.292;11.820;2023-02-08T15:26:42;18.40;;;9.63;;
67721;SDS011;58309;45.292;11.820;2023-02-08T15:29:16;17.02;;;8.63;;
67721;SDS011;58309;45.292;11.820;2023-02-08T15:31:54;20.30;;;10.48;;
67721;SDS011;58309;45.292;11.820;2023-02-08T15:34:21;20.08;;;8.55;;
67721;SDS011;58309;45.292;11.820;2023-02-08T15:36:52;16.08;;;9.20;;
67721;SDS011;58309;45.292;11.820;2023-02-08T15:41:59;20.45;;;10.50;;
67721;SDS011;58309;45.292;11.820;2023-02-08T15:44:27;19.23;;;9.60;;
67721;SDS011;58309;45.292;11.820;2023-02-08T15:46:58;18.13;;;9.82;;
67721;SDS011;58309;45.292;11.820;2023-02-08T15:49:33;20.40;;;9.18;;
67721;SDS011;58309;45.292;11.820;2023-02-08T15:52:02;18.60;;;9.63;;
67721;SDS011;58309;45.292;11.820;2023-02-08T15:54:29;20.30;;;12.43;;
67721;SDS011;58309;45.292;11.820;2023-02-08T15:57:02;18.17;;;9.68;;
67721;SDS011;58309;45.292;11.820;2023-02-08T15:59:33;19.88;;;10.48;;
67721;SDS011;58309;45.292;11.820;2023-02-08T16:04:48;21.25;;;10.93;;
67721;SDS011;58309;45.292;11.820;2023-02-08T16:07:22;22.65;;;13.10;;
67721;SDS011;58309;45.292;11.820;2023-02-08T16:10:02;27.23;;;12.05;;
67721;SDS011;58309;45.292;11.820;2023-02-08T16:12:29;21.83;;;11.02;;
67721;SDS011;58309;45.292;11.820;2023-02-08T16:14:55;16.92;;;10.90;;
67721;SDS011;58309;45.292;11.820;2023-02-08T16:19:56;17.27;;;10.55;;
67721;SDS011;58309;45.292;11.820;2023-02-08T16:22:23;19.02;;;9.27;;
67721;SDS011;58309;45.292;11.820;2023-02-08T16:28:02;23.42;;;11.10;;
67721;SDS011;58309;45.292;11.820;2023-02-08T16:30:29;18.50;;;10.60;;
67721;SDS011;58309;45.292;11.820;2023-02-08T16:32:54;20.80;;;11.05;;
67721;SDS011;58309;45.292;11.820;2023-02-08T16:37:51;27.08;;;12.77;;
67721;SDS011;58309;45.292;11.820;2023-02-08T16:49:02;19.95;;;9.73;;
67721;SDS011;58309;45.292;11.820;2023-02-08T16:51:28;18.60;;;10.00;;
67721;SDS011;58309;45.292;11.820;2023-02-08T16:53:59;16.60;;;9.30;;
67721;SDS011;58309;45.292;11.820;2023-02-08T16:56:27;22.42;;;10.48;;
67721;SDS011;58309;45.292;11.820;2023-02-08T16:58:53;18.70;;;10.20;;
67721;SDS011;58309;45.292;11.820;2023-02-08T17:01:19;22.45;;;10.68;;
67721;SDS011;58309;45.292;11.820;2023-02-08T17:03:47;16.90;;;10.20;;
67721;SDS011;58309;45.292;11.820;2023-02-08T17:06:19;17.50;;;9.75;;
67721;SDS011;58309;45.292;11.820;2023-02-08T17:08:56;18.58;;;9.70;;
67721;SDS011;58309;45.292;11.820;2023-02-08T17:11:23;23.35;;;10.88;;
67721;SDS011;58309;45.292;11.820;2023-02-08T17:13:49;22.27;;;12.07;;
67721;SDS011;58309;45.292;11.820;2023-02-08T17:16:20;18.42;;;9.57;;
67721;SDS011;58309;45.292;11.820;2023-02-08T17:18:47;21.73;;;10.80;;